Time,TemperatureF,DewpointF,PressureIn,WindDirection,WindDirectionDegrees,WindSpeedMPH,WindSpeedGustMPH,Humidity,HourlyPrecipIn,Conditions,Clouds,dailyrainin,SolarRadiationWatts/m^2,SoftwareType,DateUTC
2013-07-01 00:01:00,67.5,63.5,29.81,NNW,333,2.0,3.0,87,0.00,,,0.00,0.0,meteohub,2013-07-01 04:01:00,
2013-07-01 00:02:00,67.5,63.5,29.81,NNW,344,2.0,3.0,87,0.00,,,0.00,0.0,meteohub,2013-07-01 04:02:00,
2013-07-01 00:03:00,67.5,63.5,29.81,North,9,1.0,3.0,87,0.00,,,0.00,0.0,meteohub,2013-07-01 04:03:00,
2013-07-01 00:05:00,67.3,63.3,29.81,North,9,0.0,3.0,87,0.00,,,0.00,0.0,meteohub,2013-07-01 04:05:00,
2013-07-01 00:07:00,67.3,63.3,29.81,North,9,0.0,4.0,87,0.00,,,0.00,0.0,meteohub,2013-07-01 04:07:00,
2013-07-01 00:12:00,67.3,63.3,29.81,NNE,28,0.0,4.0,87,0.00,,,0.00,0.0,meteohub,2013-07-01 04:12:00,
2013-07-01 00:17:00,67.1,63.5,29.81,NNE,19,0.0,4.0,88,0.00,,,0.00,0.0,meteohub,2013-07-01 04:17:00,
2013-07-01 00:22:00,67.1,63.5,29.81,NE,38,0.0,4.0,88,0.00,,,0.00,0.0,meteohub,2013-07-01 04:22:00,
2013-07-01 00:27:00,66.9,63.3,29.80,NE,38,0.0,4.0,88,0.00,,,0.00,0.0,meteohub,2013-07-01 04:27:00,
2013-07-01 00:32:00,66.9,63.3,29.80,NE,38,0.0,3.0,88,0.00,,,0.00,0.0,meteohub,2013-07-01 04:32:00,
2013-07-01 00:37:00,66.7,63.1,29.81,NNW,338,2.0,2.0,88,0.00,,,0.00,0.0,meteohub,2013-07-01 04:37:00,
2013-07-01 00:42:00,66.7,63.1,29.80,North,6,0.0,3.0,88,0.00,,,0.00,0.0,meteohub,2013-07-01 04:42:00,
2013-07-01 00:48:00,66.6,63.1,29.81,North,8,0.0,3.0,89,0.00,,,0.00,0.0,meteohub,2013-07-01 04:48:00,
2013-07-01 00:53:00,66.4,63.0,29.81,North,8,0.0,3.0,89,0.00,,,0.00,0.0,meteohub,2013-07-01 04:53:00,
2013-07-01 00:58:00,66.0,62.6,29.81,North,8,0.0,1.0,89,0.00,,,0.00,0.0,meteohub,2013-07-01 04:58:00,
2013-07-01 01:03:00,66.0,63.0,29.81,North,9,0.0,1.0,90,0.00,,,0.00,0.0,meteohub,2013-07-01 05:03:00,
2013-07-01 01:08:00,65.8,62.8,29.81,ENE,69,2.0,2.0,90,0.00,,,0.00,0.0,meteohub,2013-07-01 05:08:00,
2013-07-01 01:13:00,65.8,62.8,29.81,East,80,0.0,2.0,90,0.00,,,0.00,0.0,meteohub,2013-07-01 05:13:00,
2013-07-01 01:18:00,65.8,62.8,29.81,East,80,0.0,3.0,90,0.00,,,0.00,0.0,meteohub,2013-07-01 05:18:00,
2013-07-01 01:23:00,65.8,62.8,29.81,East,80,0.0,3.0,90,0.00,,,0.00,0.0,meteohub,2013-07-01 05:23:00,
2013-07-01 01:28:00,65.7,62.6,29.81,East,80,0.0,2.0,90,0.00,,,0.00,0.0,meteohub,2013-07-01 05:28:00,
2013-07-01 01:34:00,65.7,62.6,29.81,East,80,0.0,1.0,90,0.00,,,0.00,0.0,meteohub,2013-07-01 05:34:00,
2013-07-01 01:39:00,65.5,62.4,29.81,East,80,0.0,1.0,90,0.00,,,0.00,0.0,meteohub,2013-07-01 05:39:00,
2013-07-01 01:44:00,65.3,62.2,29.81,East,80,0.0,1.0,90,0.00,,,0.00,0.0,meteohub,2013-07-01 05:44:00,
2013-07-01 01:49:00,65.1,62.4,29.81,East,79,1.0,1.0,91,0.00,,,0.00,0.0,meteohub,2013-07-01 05:49:00,
2013-07-01 01:54:00,64.9,62.2,29.81,ENE,78,0.0,2.0,91,0.00,,,0.00,0.0,meteohub,2013-07-01 05:54:00,
2013-07-01 01:59:00,64.9,62.2,29.81,ENE,78,0.0,2.0,91,0.00,,,0.00,0.0,meteohub,2013-07-01 05:59:00,
2013-07-01 02:04:00,64.8,62.1,29.81,ENE,78,0.0,2.0,91,0.00,,,0.00,0.0,meteohub,2013-07-01 06:04:00,
2013-07-01 02:09:00,64.8,62.4,29.81,ENE,78,0.0,2.0,92,0.00,,,0.00,0.0,meteohub,2013-07-01 06:09:00,
2013-07-01 02:14:00,64.8,62.4,29.80,ENE,78,0.0,1.0,92,0.00,,,0.00,0.0,meteohub,2013-07-01 06:14:00,
2013-07-01 02:19:00,64.8,62.4,29.80,ENE,78,0.0,1.0,92,0.00,,,0.00,0.0,meteohub,2013-07-01 06:19:00,
2013-07-01 02:24:00,64.6,62.2,29.80,ENE,78,0.0,1.0,92,0.00,,,0.00,0.0,meteohub,2013-07-01 06:24:00,
2013-07-01 02:29:00,64.6,62.2,29.80,ENE,78,0.0,1.0,92,0.00,,,0.00,0.0,meteohub,2013-07-01 06:29:00,
2013-07-01 02:35:00,64.6,62.4,29.80,ENE,78,0.0,1.0,93,0.00,,,0.00,0.0,meteohub,2013-07-01 06:35:00,
2013-07-01 02:40:00,64.8,62.6,29.79,ENE,78,0.0,1.0,93,0.00,,,0.00,0.0,meteohub,2013-07-01 06:40:00,
2013-07-01 02:45:00,64.8,62.6,29.80,ENE,78,0.0,1.0,93,0.00,,,0.00,0.0,meteohub,2013-07-01 06:45:00,
2013-07-01 02:50:00,64.8,62.6,29.80,ENE,78,1.0,1.0,93,0.00,,,0.00,0.0,meteohub,2013-07-01 06:50:00,
2013-07-01 02:55:00,64.9,62.8,29.79,ENE,78,0.0,2.0,93,0.00,,,0.00,0.0,meteohub,2013-07-01 06:55:00,
2013-07-01 03:00:00,64.9,62.8,29.79,ENE,78,2.0,2.0,93,0.00,,,0.00,0.0,meteohub,2013-07-01 07:00:00,
2013-07-01 03:05:00,64.9,62.8,29.79,ENE,78,0.0,2.0,93,0.00,,,0.00,0.0,meteohub,2013-07-01 07:05:00,
2013-07-01 03:10:00,64.9,62.8,29.79,ENE,78,0.0,2.0,93,0.00,,,0.00,0.0,meteohub,2013-07-01 07:10:00,
2013-07-01 03:15:00,64.8,62.6,29.79,ENE,78,0.0,2.0,93,0.00,,,0.00,0.0,meteohub,2013-07-01 07:15:00,
2013-07-01 03:20:00,64.8,62.6,29.80,ENE,78,0.0,1.0,93,0.00,,,0.00,0.0,meteohub,2013-07-01 07:20:00,
2013-07-01 03:25:00,64.9,62.8,29.80,ENE,78,0.0,1.0,93,0.00,,,0.00,0.0,meteohub,2013-07-01 07:25:00,
2013-07-01 03:31:00,64.8,62.6,29.80,ENE,78,0.0,1.0,93,0.00,,,0.00,0.0,meteohub,2013-07-01 07:31:00,
2013-07-01 03:36:00,64.8,62.6,29.80,ENE,78,0.0,1.0,93,0.00,,,0.00,0.0,meteohub,2013-07-01 07:36:00,
2013-07-01 03:41:00,64.8,62.6,29.81,ENE,78,0.0,1.0,93,0.00,,,0.00,0.0,meteohub,2013-07-01 07:41:00,
2013-07-01 03:46:00,64.8,62.6,29.81,ENE,78,0.0,1.0,93,0.00,,,0.00,0.0,meteohub,2013-07-01 07:46:00,
2013-07-01 03:51:00,64.8,62.6,29.81,ENE,78,0.0,1.0,93,0.00,,,0.00,0.0,meteohub,2013-07-01 07:51:00,
2013-07-01 03:56:00,64.8,63.0,29.81,ENE,63,2.0,2.0,94,0.00,,,0.00,0.0,meteohub,2013-07-01 07:56:00,
2013-07-01 04:01:00,64.8,63.0,29.81,NNE,24,1.0,2.0,94,0.00,,,0.00,0.0,meteohub,2013-07-01 08:01:00,
2013-07-01 04:06:00,64.8,63.0,29.81,NNE,24,1.0,2.0,94,0.00,,,0.00,0.0,meteohub,2013-07-01 08:06:00,
2013-07-01 04:11:00,64.8,63.0,29.81,NNE,24,0.0,2.0,94,0.00,,,0.00,0.0,meteohub,2013-07-01 08:11:00,
2013-07-01 04:16:00,64.8,63.0,29.81,NNE,24,0.0,2.0,94,0.00,,,0.00,0.0,meteohub,2013-07-01 08:16:00,
2013-07-01 04:21:00,64.8,63.0,29.80,NNE,24,0.0,2.0,94,0.00,,,0.00,0.0,meteohub,2013-07-01 08:21:00,
2013-07-01 04:27:00,64.8,63.0,29.80,East,96,1.0,0.0,94,0.00,,,0.00,0.0,meteohub,2013-07-01 08:27:00,
2013-07-01 04:32:00,64.8,63.0,29.80,ENE,65,0.0,3.0,94,0.00,,,0.00,0.0,meteohub,2013-07-01 08:32:00,
2013-07-01 04:37:00,64.9,63.1,29.80,NNE,27,2.0,3.0,94,0.00,,,0.00,0.0,meteohub,2013-07-01 08:37:00,
2013-07-01 04:42:00,64.9,63.1,29.80,ENE,59,0.0,3.0,94,0.00,,,0.00,0.0,meteohub,2013-07-01 08:42:00,
2013-07-01 04:47:00,64.9,63.1,29.80,ENE,59,0.0,3.0,94,0.00,,,0.00,0.0,meteohub,2013-07-01 08:47:00,
2013-07-01 04:52:00,64.9,63.1,29.81,NNE,28,0.0,3.0,94,0.00,,,0.00,0.0,meteohub,2013-07-01 08:52:00,
2013-07-01 04:57:00,65.1,63.3,29.80,NNE,28,0.0,3.0,94,0.00,,,0.00,0.0,meteohub,2013-07-01 08:57:00,
2013-07-01 05:02:00,65.1,63.3,29.81,NNE,28,0.0,3.0,94,0.00,,,0.00,0.0,meteohub,2013-07-01 09:02:00,
2013-07-01 05:07:00,65.1,63.3,29.81,NNE,28,0.0,1.0,94,0.00,,,0.00,0.0,meteohub,2013-07-01 09:07:00,
2013-07-01 05:12:00,64.9,63.1,29.81,NNE,28,2.0,2.0,94,0.00,,,0.00,0.0,meteohub,2013-07-01 09:12:00,
2013-07-01 05:17:00,65.1,63.3,29.80,NNE,28,1.0,2.0,94,0.00,,,0.00,0.0,meteohub,2013-07-01 09:17:00,
2013-07-01 05:23:00,65.1,63.3,29.81,NNE,28,1.0,2.0,94,0.00,,,0.00,0.0,meteohub,2013-07-01 09:23:00,
2013-07-01 05:28:00,65.1,63.3,29.81,NNE,28,0.0,2.0,94,0.00,,,0.00,0.0,meteohub,2013-07-01 09:28:00,
2013-07-01 05:33:00,65.1,63.3,29.81,NE,44,2.0,2.0,94,0.00,,,0.00,0.0,meteohub,2013-07-01 09:33:00,
2013-07-01 05:38:00,65.3,63.5,29.81,NE,56,0.0,3.0,94,0.00,,,0.00,0.0,meteohub,2013-07-01 09:38:00,
2013-07-01 05:43:00,65.3,63.5,29.81,NE,55,0.0,3.0,94,0.00,,,0.00,0.0,meteohub,2013-07-01 09:43:00,
2013-07-01 05:48:00,65.3,63.5,29.82,NE,55,1.0,3.0,94,0.00,,,0.00,0.0,meteohub,2013-07-01 09:48:00,
2013-07-01 05:53:00,65.5,63.7,29.82,NE,47,0.0,3.0,94,0.00,,,0.00,0.0,meteohub,2013-07-01 09:53:00,
2013-07-01 05:58:00,65.5,63.7,29.82,NE,36,1.0,3.0,94,0.00,,,0.00,0.0,meteohub,2013-07-01 09:58:00,
2013-07-01 06:03:00,65.5,63.7,29.82,NE,36,0.0,3.0,94,0.00,,,0.00,0.0,meteohub,2013-07-01 10:03:00,
2013-07-01 06:08:00,65.5,63.7,29.82,NE,37,2.0,3.0,94,0.00,,,0.00,0.0,meteohub,2013-07-01 10:08:00,
2013-07-01 06:14:00,65.7,63.9,29.82,ENE,63,2.0,2.0,94,0.00,,,0.00,0.0,meteohub,2013-07-01 10:14:00,
2013-07-01 06:19:00,65.7,63.9,29.82,ESE,114,1.0,3.0,94,0.00,,,0.00,0.0,meteohub,2013-07-01 10:19:00,
2013-07-01 06:24:00,65.7,63.9,29.82,ESE,106,0.0,3.0,94,0.00,,,0.00,0.0,meteohub,2013-07-01 10:24:00,
2013-07-01 06:29:00,65.7,63.9,29.82,NE,44,0.0,3.0,94,0.00,,,0.00,5.0,meteohub,2013-07-01 10:29:00,
2013-07-01 06:34:00,65.7,63.9,29.82,ENE,65,0.0,3.0,94,0.00,,,0.00,12.0,meteohub,2013-07-01 10:34:00,
2013-07-01 06:39:00,65.8,64.0,29.82,East,83,0.0,2.0,94,0.00,,,0.00,19.0,meteohub,2013-07-01 10:39:00,
2013-07-01 06:44:00,65.8,64.0,29.82,ESE,119,0.0,5.0,94,0.00,,,0.00,25.0,meteohub,2013-07-01 10:44:00,
2013-07-01 06:49:00,65.8,64.0,29.82,ESE,116,0.0,5.0,94,0.00,,,0.00,30.0,meteohub,2013-07-01 10:49:00,
2013-07-01 06:54:00,66.0,64.2,29.83,East,84,1.0,3.0,94,0.00,,,0.00,37.0,meteohub,2013-07-01 10:54:00,
2013-07-01 06:59:00,66.2,64.4,29.83,ENE,74,0.0,3.0,94,0.00,,,0.00,35.0,meteohub,2013-07-01 10:59:00,
2013-07-01 07:04:00,66.4,64.2,29.83,ESE,113,1.0,3.0,93,0.00,,,0.00,33.0,meteohub,2013-07-01 11:04:00,
2013-07-01 07:10:00,66.4,64.2,29.83,ESE,112,3.0,3.0,93,0.00,,,0.00,33.0,meteohub,2013-07-01 11:10:00,
2013-07-01 07:15:00,66.6,64.4,29.83,ESE,111,0.0,4.0,93,0.00,,,0.00,37.0,meteohub,2013-07-01 11:15:00,
2013-07-01 07:20:00,66.6,64.4,29.84,ESE,112,0.0,4.0,93,0.00,,,0.00,37.0,meteohub,2013-07-01 11:20:00,
2013-07-01 07:25:00,66.7,64.6,29.84,ESE,112,0.0,2.0,93,0.00,,,0.00,46.0,meteohub,2013-07-01 11:25:00,
2013-07-01 07:30:00,66.7,64.6,29.84,ESE,112,0.0,2.0,93,0.00,,,0.00,47.0,meteohub,2013-07-01 11:30:00,
2013-07-01 07:35:00,66.9,64.8,29.84,ESE,112,0.0,1.0,93,0.00,,,0.00,42.0,meteohub,2013-07-01 11:35:00,
2013-07-01 07:40:00,67.1,64.9,29.84,ESE,112,0.0,1.0,93,0.00,,,0.00,33.0,meteohub,2013-07-01 11:40:00,
2013-07-01 07:45:00,67.1,64.9,29.84,ESE,111,0.0,1.0,93,0.00,,,0.00,25.0,meteohub,2013-07-01 11:45:00,
2013-07-01 07:50:00,67.3,65.1,29.84,ESE,112,0.0,1.0,93,0.00,,,0.00,21.0,meteohub,2013-07-01 11:50:00,
2013-07-01 07:52:00,67.3,65.1,29.84,ESE,112,2.0,2.0,93,0.00,,,0.00,21.0,meteohub,2013-07-01 11:52:00,
2013-07-01 07:57:00,67.3,65.1,29.84,ENE,57,0.0,2.0,93,0.01,,,0.01,23.0,meteohub,2013-07-01 11:57:00,
2013-07-01 08:02:00,67.3,65.1,29.84,NE,42,1.0,2.0,93,0.04,,,0.04,25.0,meteohub,2013-07-01 12:02:00,
2013-07-01 08:07:00,67.3,65.1,29.84,NE,42,0.0,4.0,93,0.07,,,0.07,30.0,meteohub,2013-07-01 12:07:00,
2013-07-01 08:12:00,67.3,65.1,29.84,NE,42,0.0,4.0,93,0.08,,,0.08,40.0,meteohub,2013-07-01 12:12:00,
2013-07-01 08:17:00,67.3,65.1,29.84,NE,42,0.0,4.0,93,0.10,,,0.10,49.0,meteohub,2013-07-01 12:17:00,
2013-07-01 08:22:00,67.5,65.7,29.83,NE,42,1.0,2.0,94,0.10,,,0.10,62.0,meteohub,2013-07-01 12:22:00,
2013-07-01 08:28:00,67.5,65.7,29.83,NE,34,0.0,2.0,94,0.11,,,0.11,60.0,meteohub,2013-07-01 12:28:00,
2013-07-01 08:33:00,67.5,65.7,29.83,NNE,29,3.0,3.0,94,0.11,,,0.11,54.0,meteohub,2013-07-01 12:33:00,
2013-07-01 08:38:00,67.6,65.8,29.83,ENE,61,2.0,3.0,94,0.11,,,0.11,62.0,meteohub,2013-07-01 12:38:00,
2013-07-01 08:43:00,67.6,65.8,29.83,NE,51,0.0,4.0,94,0.11,,,0.11,70.0,meteohub,2013-07-01 12:43:00,
2013-07-01 08:48:00,67.8,66.0,29.83,NE,51,0.0,4.0,94,0.11,,,0.11,91.0,meteohub,2013-07-01 12:48:00,
2013-07-01 08:53:00,68.0,66.2,29.84,NE,51,0.0,4.0,94,0.11,,,0.12,113.0,meteohub,2013-07-01 12:53:00,
2013-07-01 08:58:00,68.2,66.4,29.84,NE,51,1.0,2.0,94,0.10,,,0.12,155.0,meteohub,2013-07-01 12:58:00,
2013-07-01 09:03:00,68.4,66.6,29.84,NE,51,0.0,2.0,94,0.08,,,0.12,192.0,meteohub,2013-07-01 13:03:00,
2013-07-01 09:08:00,68.5,66.4,29.84,ENE,57,0.0,2.0,93,0.05,,,0.12,169.0,meteohub,2013-07-01 13:08:00,
2013-07-01 09:13:00,68.7,66.9,29.84,ENE,57,0.0,3.0,94,0.03,,,0.12,185.0,meteohub,2013-07-01 13:13:00,
2013-07-01 09:18:00,69.1,67.3,29.84,ENE,59,1.0,3.0,94,0.02,,,0.12,209.0,meteohub,2013-07-01 13:18:00,
2013-07-01 09:24:00,69.4,67.3,29.84,SE,140,0.0,3.0,93,0.01,,,0.12,193.0,meteohub,2013-07-01 13:24:00,
2013-07-01 09:29:00,69.6,67.3,29.84,ESE,108,0.0,4.0,92,0.01,,,0.12,248.0,meteohub,2013-07-01 13:29:00,
2013-07-01 09:34:00,70.2,67.6,29.84,East,92,1.0,4.0,92,0.01,,,0.12,239.0,meteohub,2013-07-01 13:34:00,
2013-07-01 09:39:00,70.5,68.0,29.84,ENE,73,1.0,4.0,92,0.01,,,0.12,294.0,meteohub,2013-07-01 13:39:00,
2013-07-01 09:44:00,70.9,68.4,29.84,East,80,2.0,4.0,92,0.01,,,0.12,278.0,meteohub,2013-07-01 13:44:00,
2013-07-01 09:49:00,71.2,68.5,29.83,ENE,65,3.0,4.0,91,0.01,,,0.12,287.0,meteohub,2013-07-01 13:49:00,
2013-07-01 09:54:00,71.8,68.7,29.83,ENE,78,3.0,5.0,90,0.00,,,0.12,301.0,meteohub,2013-07-01 13:54:00,
2013-07-01 09:59:00,72.0,68.5,29.83,ENE,69,3.0,5.0,89,0.00,,,0.12,279.0,meteohub,2013-07-01 13:59:00,
2013-07-01 10:04:00,72.1,68.7,29.83,East,98,1.0,5.0,89,0.00,,,0.12,257.0,meteohub,2013-07-01 14:04:00,
2013-07-01 10:10:00,72.1,68.4,29.83,ENE,57,3.0,5.0,88,0.00,,,0.12,272.0,meteohub,2013-07-01 14:10:00,
2013-07-01 10:15:00,72.0,67.8,29.83,East,80,5.0,6.0,87,0.00,,,0.12,287.0,meteohub,2013-07-01 14:15:00,
2013-07-01 10:20:00,72.0,68.2,29.83,SE,128,1.0,7.0,88,0.00,,,0.12,285.0,meteohub,2013-07-01 14:20:00,
2013-07-01 10:25:00,72.0,67.8,29.83,SE,142,2.0,7.0,87,0.00,,,0.12,283.0,meteohub,2013-07-01 14:25:00,
2013-07-01 10:30:00,72.1,68.0,29.84,ESE,117,1.0,7.0,87,0.00,,,0.12,332.0,meteohub,2013-07-01 14:30:00,
2013-07-01 10:35:00,72.3,68.2,29.84,SE,137,2.0,7.0,87,0.00,,,0.12,390.0,meteohub,2013-07-01 14:35:00,
2013-07-01 10:40:00,72.9,69.1,29.84,East,100,2.0,7.0,88,0.00,,,0.12,397.0,meteohub,2013-07-01 14:40:00,
2013-07-01 10:45:00,73.2,68.4,29.84,SSE,151,2.0,7.0,85,0.00,,,0.12,357.0,meteohub,2013-07-01 14:45:00,
2013-07-01 10:50:00,73.6,68.7,29.84,SE,130,0.0,4.0,85,0.00,,,0.12,330.0,meteohub,2013-07-01 14:50:00,
2013-07-01 10:55:00,73.9,68.7,29.84,East,90,2.0,4.0,84,0.00,,,0.12,383.0,meteohub,2013-07-01 14:55:00,
2013-07-01 11:00:00,74.7,69.1,29.84,NNE,32,1.0,4.0,83,0.00,,,0.12,559.0,meteohub,2013-07-01 15:00:00,
2013-07-01 11:05:00,75.7,70.5,29.84,ENE,60,0.0,4.0,84,0.00,,,0.12,965.0,meteohub,2013-07-01 15:05:00,
2013-07-01 11:11:00,77.2,70.2,29.84,ESE,115,3.0,4.0,79,0.00,,,0.12,1056.0,meteohub,2013-07-01 15:11:00,
2013-07-01 11:16:00,77.2,67.8,29.84,SSE,155,1.0,6.0,73,0.00,,,0.12,441.0,meteohub,2013-07-01 15:16:00,
2013-07-01 11:21:00,76.5,68.4,29.85,SSE,154,4.0,7.0,76,0.00,,,0.12,362.0,meteohub,2013-07-01 15:21:00,
2013-07-01 11:26:00,75.9,68.2,29.85,East,95,1.0,7.0,77,0.00,,,0.12,415.0,meteohub,2013-07-01 15:26:00,
2013-07-01 11:31:00,75.7,68.7,29.85,North,7,1.0,5.0,79,0.00,,,0.12,413.0,meteohub,2013-07-01 15:31:00,
2013-07-01 11:36:00,76.3,69.6,29.85,ENE,69,2.0,5.0,80,0.00,,,0.12,475.0,meteohub,2013-07-01 15:36:00,
2013-07-01 11:41:00,76.5,68.0,29.85,SE,146,2.0,4.0,75,0.00,,,0.12,348.0,meteohub,2013-07-01 15:41:00,
2013-07-01 11:46:00,76.3,67.5,29.85,SE,144,1.0,4.0,74,0.00,,,0.12,250.0,meteohub,2013-07-01 15:46:00,
2013-07-01 11:51:00,75.9,68.9,29.85,East,93,1.0,4.0,79,0.00,,,0.12,431.0,meteohub,2013-07-01 15:51:00,
2013-07-01 11:57:00,76.5,69.1,29.85,East,84,0.0,4.0,78,0.00,,,0.12,487.0,meteohub,2013-07-01 15:57:00,
2013-07-01 12:02:00,77.2,67.5,29.84,ESE,123,1.0,3.0,72,0.00,,,0.12,754.0,meteohub,2013-07-01 16:02:00,
2013-07-01 12:07:00,78.1,67.8,29.84,WNW,300,2.0,3.0,71,0.00,,,0.12,784.0,meteohub,2013-07-01 16:07:00,
2013-07-01 12:12:00,78.1,68.7,29.84,West,259,2.0,5.0,73,0.00,,,0.12,527.0,meteohub,2013-07-01 16:12:00,
2013-07-01 12:17:00,77.4,68.0,29.84,WNW,299,1.0,5.0,73,0.00,,,0.12,323.0,meteohub,2013-07-01 16:17:00,
2013-07-01 12:22:00,76.8,65.8,29.84,NW,304,2.0,5.0,69,0.00,,,0.12,327.0,meteohub,2013-07-01 16:22:00,
2013-07-01 12:27:00,76.6,65.3,29.84,SE,137,1.0,5.0,68,0.00,,,0.12,288.0,meteohub,2013-07-01 16:27:00,
2013-07-01 12:32:00,76.6,66.9,29.84,WSW,247,0.0,5.0,72,0.00,,,0.12,153.0,meteohub,2013-07-01 16:32:00,
2013-07-01 12:37:00,76.6,68.5,29.84,West,264,2.0,3.0,76,0.00,,,0.12,63.0,meteohub,2013-07-01 16:37:00,
2013-07-01 12:42:00,75.9,65.8,29.85,West,259,11.0,11.0,71,0.00,,,0.12,19.0,meteohub,2013-07-01 16:42:00,
2013-07-01 12:47:00,73.2,62.1,29.86,NNW,330,4.0,14.0,68,0.00,,,0.12,30.0,meteohub,2013-07-01 16:47:00,
2013-07-01 12:52:00,70.9,61.9,29.86,West,280,4.0,15.0,73,0.06,,,0.18,63.0,meteohub,2013-07-01 16:52:00,
2013-07-01 12:58:00,69.1,61.9,29.88,NNE,18,4.0,15.0,78,0.08,,,0.20,113.0,meteohub,2013-07-01 16:58:00,
2013-07-01 13:03:00,67.5,61.7,29.88,NNE,24,8.0,15.0,82,0.23,,,0.20,200.0,meteohub,2013-07-01 17:03:00,
2013-07-01 13:08:00,66.7,62.4,29.87,North,4,2.0,12.0,86,0.30,,,0.42,265.0,meteohub,2013-07-01 17:08:00,
2013-07-01 13:13:00,67.1,63.7,29.87,WNW,294,3.0,13.0,89,0.30,,,0.42,367.0,meteohub,2013-07-01 17:13:00,
2013-07-01 13:19:00,69.3,66.2,29.86,NW,304,7.0,13.0,90,0.30,,,0.42,1004.0,meteohub,2013-07-01 17:19:00,
2013-07-01 13:24:00,71.2,68.7,29.85,WNW,286,3.0,9.0,92,0.30,,,0.42,932.0,meteohub,2013-07-01 17:24:00,
2013-07-01 13:29:00,72.7,69.6,29.84,WNW,287,1.0,11.0,90,0.30,,,0.42,930.0,meteohub,2013-07-01 17:29:00,
2013-07-01 13:34:00,73.0,69.3,29.84,West,268,3.0,11.0,88,0.30,,,0.42,933.0,meteohub,2013-07-01 17:34:00,
2013-07-01 13:39:00,73.6,69.8,29.84,NNE,25,3.0,11.0,88,0.30,,,0.42,933.0,meteohub,2013-07-01 17:39:00,
2013-07-01 13:44:00,74.7,70.9,29.84,NNE,12,3.0,8.0,88,0.30,,,0.42,956.0,meteohub,2013-07-01 17:44:00,
2013-07-01 13:49:00,75.0,69.4,29.83,North,352,3.0,8.0,83,0.29,,,0.42,940.0,meteohub,2013-07-01 17:49:00,
2013-07-01 13:54:00,75.4,70.5,29.83,WNW,295,3.0,8.0,85,0.22,,,0.42,960.0,meteohub,2013-07-01 17:54:00,
2013-07-01 13:59:00,75.7,70.9,29.83,NW,304,3.0,8.0,85,0.22,,,0.42,1097.0,meteohub,2013-07-01 17:59:00,
2013-07-01 14:04:00,76.8,71.6,29.83,North,8,1.0,8.0,84,0.05,,,0.42,357.0,meteohub,2013-07-01 18:04:00,
2013-07-01 14:10:00,76.3,69.6,29.83,North,0,2.0,8.0,80,0.00,,,0.42,278.0,meteohub,2013-07-01 18:10:00,
2013-07-01 14:15:00,75.6,70.3,29.83,North,2,2.0,8.0,84,0.00,,,0.42,912.0,meteohub,2013-07-01 18:15:00,
2013-07-01 14:20:00,76.8,70.2,29.83,NNE,31,4.0,8.0,80,0.00,,,0.42,970.0,meteohub,2013-07-01 18:20:00,
2013-07-01 14:25:00,77.2,71.2,29.83,North,0,3.0,8.0,82,0.01,,,0.43,969.0,meteohub,2013-07-01 18:25:00,
2013-07-01 14:30:00,76.8,69.1,29.82,NNW,348,1.0,8.0,77,0.01,,,0.43,246.0,meteohub,2013-07-01 18:30:00,
2013-07-01 14:35:00,76.5,70.5,29.83,NE,37,0.0,8.0,82,0.01,,,0.43,805.0,meteohub,2013-07-01 18:35:00,
2013-07-01 14:40:00,77.2,69.1,29.82,NE,54,3.0,6.0,76,0.01,,,0.43,905.0,meteohub,2013-07-01 18:40:00,
2013-07-01 14:45:00,77.7,69.1,29.82,NNE,21,3.0,7.0,75,0.01,,,0.43,960.0,meteohub,2013-07-01 18:45:00,
2013-07-01 14:51:00,77.7,68.7,29.82,NNE,27,3.0,7.0,74,0.01,,,0.43,949.0,meteohub,2013-07-01 18:51:00,
2013-07-01 14:56:00,78.3,70.0,29.81,East,94,3.0,7.0,76,0.01,,,0.43,891.0,meteohub,2013-07-01 18:56:00,
2013-07-01 15:01:00,78.6,68.9,29.81,NNW,333,2.0,7.0,72,0.01,,,0.43,923.0,meteohub,2013-07-01 19:01:00,
2013-07-01 15:06:00,79.0,70.0,29.81,NE,51,4.0,8.0,74,0.01,,,0.43,946.0,meteohub,2013-07-01 19:06:00,
2013-07-01 15:11:00,78.8,69.4,29.81,North,11,3.0,8.0,73,0.01,,,0.43,916.0,meteohub,2013-07-01 19:11:00,
2013-07-01 15:16:00,79.0,68.4,29.81,NNW,336,3.0,6.0,70,0.01,,,0.43,858.0,meteohub,2013-07-01 19:16:00,
2013-07-01 15:21:00,79.2,70.2,29.81,NE,37,4.0,6.0,74,0.00,,,0.43,896.0,meteohub,2013-07-01 19:21:00,
2013-07-01 15:26:00,79.7,69.8,29.81,NNE,13,5.0,6.0,72,0.00,,,0.43,904.0,meteohub,2013-07-01 19:26:00,
2013-07-01 15:31:00,79.5,68.9,29.81,North,3,5.0,10.0,70,0.00,,,0.43,773.0,meteohub,2013-07-01 19:31:00,
2013-07-01 15:36:00,79.3,68.7,29.81,NE,44,3.0,10.0,70,0.00,,,0.43,777.0,meteohub,2013-07-01 19:36:00,
2013-07-01 15:41:00,79.2,68.5,29.81,ENE,68,7.0,10.0,70,0.00,,,0.43,768.0,meteohub,2013-07-01 19:41:00,
2013-07-01 15:47:00,79.3,67.8,29.81,NE,38,3.0,10.0,68,0.00,,,0.43,554.0,meteohub,2013-07-01 19:47:00,
2013-07-01 15:52:00,79.3,68.4,29.81,ENE,60,3.0,10.0,69,0.00,,,0.43,812.0,meteohub,2013-07-01 19:52:00,
2013-07-01 15:57:00,80.1,69.4,29.81,ENE,61,3.0,10.0,70,0.00,,,0.43,923.0,meteohub,2013-07-01 19:57:00,
2013-07-01 16:02:00,80.6,68.5,29.81,NNE,13,2.0,8.0,67,0.00,,,0.43,914.0,meteohub,2013-07-01 20:02:00,
2013-07-01 16:07:00,81.7,70.5,29.81,ENE,69,4.0,8.0,69,0.00,,,0.43,965.0,meteohub,2013-07-01 20:07:00,
2013-07-01 16:12:00,81.1,68.2,29.81,NNE,20,5.0,8.0,65,0.00,,,0.43,591.0,meteohub,2013-07-01 20:12:00,
2013-07-01 16:17:00,80.8,68.0,29.81,North,358,5.0,8.0,65,0.00,,,0.43,455.0,meteohub,2013-07-01 20:17:00,
2013-07-01 16:22:00,80.1,68.2,29.81,ESE,109,3.0,8.0,67,0.00,,,0.43,380.0,meteohub,2013-07-01 20:22:00,
2013-07-01 16:27:00,79.3,68.4,29.80,North,8,2.0,8.0,69,0.00,,,0.43,297.0,meteohub,2013-07-01 20:27:00,
2013-07-01 16:33:00,79.2,67.3,29.80,North,5,4.0,8.0,67,0.00,,,0.43,232.0,meteohub,2013-07-01 20:33:00,
2013-07-01 16:38:00,78.6,66.4,29.80,NE,41,4.0,9.0,66,0.00,,,0.43,179.0,meteohub,2013-07-01 20:38:00,
2013-07-01 16:43:00,78.3,66.4,29.80,NE,38,6.0,9.0,67,0.00,,,0.43,135.0,meteohub,2013-07-01 20:43:00,
2013-07-01 16:48:00,77.7,65.8,29.81,NE,56,4.0,9.0,67,0.00,,,0.43,109.0,meteohub,2013-07-01 20:48:00,
2013-07-01 16:53:00,77.4,66.0,29.80,NE,42,4.0,7.0,68,0.00,,,0.43,91.0,meteohub,2013-07-01 20:53:00,
2013-07-01 16:58:00,76.8,65.8,29.81,NE,36,0.0,7.0,69,0.00,,,0.43,88.0,meteohub,2013-07-01 20:58:00,
2013-07-01 17:03:00,76.6,65.7,29.82,East,92,1.0,7.0,69,0.00,,,0.43,90.0,meteohub,2013-07-01 21:03:00,
2013-07-01 17:08:00,76.5,66.4,29.81,NNE,21,3.0,7.0,71,0.00,,,0.43,86.0,meteohub,2013-07-01 21:08:00,
2013-07-01 17:13:00,76.3,66.2,29.82,NNE,19,1.0,6.0,71,0.00,,,0.43,88.0,meteohub,2013-07-01 21:13:00,
2013-07-01 17:18:00,76.1,66.4,29.83,NE,42,0.0,5.0,72,0.00,,,0.43,86.0,meteohub,2013-07-01 21:18:00,
2013-07-01 17:24:00,75.9,66.6,29.83,ESE,103,1.0,5.0,73,0.00,,,0.43,72.0,meteohub,2013-07-01 21:24:00,
2013-07-01 17:29:00,75.9,66.6,29.83,East,94,2.0,5.0,73,0.00,,,0.43,63.0,meteohub,2013-07-01 21:29:00,
2013-07-01 17:34:00,75.7,66.9,29.83,ENE,60,3.0,5.0,74,0.00,,,0.43,63.0,meteohub,2013-07-01 21:34:00,
2013-07-01 17:39:00,75.6,66.7,29.84,East,93,0.0,5.0,74,0.00,,,0.43,62.0,meteohub,2013-07-01 21:39:00,
2013-07-01 17:44:00,75.6,67.1,29.83,ENE,59,1.0,5.0,75,0.00,,,0.43,74.0,meteohub,2013-07-01 21:44:00,
2013-07-01 17:49:00,75.4,67.3,29.84,NE,44,1.0,5.0,76,0.00,,,0.43,62.0,meteohub,2013-07-01 21:49:00,
2013-07-01 17:54:00,75.4,67.3,29.84,East,93,3.0,5.0,76,0.00,,,0.43,58.0,meteohub,2013-07-01 21:54:00,
2013-07-01 17:59:00,75.2,67.5,29.84,ENE,66,2.0,5.0,77,0.00,,,0.43,51.0,meteohub,2013-07-01 21:59:00,
2013-07-01 18:04:00,75.0,67.6,29.84,East,85,0.0,6.0,78,0.00,,,0.43,35.0,meteohub,2013-07-01 22:04:00,
2013-07-01 18:09:00,74.7,67.6,29.85,ENE,71,1.0,6.0,79,0.00,,,0.43,32.0,meteohub,2013-07-01 22:09:00,
2013-07-01 18:14:00,74.5,67.5,29.85,East,90,2.0,6.0,79,0.00,,,0.43,32.0,meteohub,2013-07-01 22:14:00,
2013-07-01 18:19:00,74.1,67.6,29.84,ENE,75,1.0,4.0,80,0.00,,,0.43,44.0,meteohub,2013-07-01 22:19:00,
2013-07-01 18:24:00,73.9,67.8,29.85,East,100,3.0,3.0,81,0.00,,,0.43,42.0,meteohub,2013-07-01 22:24:00,
2013-07-01 18:29:00,73.8,68.0,29.85,ESE,102,0.0,4.0,82,0.00,,,0.43,49.0,meteohub,2013-07-01 22:29:00,
2013-07-01 18:35:00,73.6,68.2,29.84,NE,56,1.0,4.0,83,0.01,,,0.44,53.0,meteohub,2013-07-01 22:35:00,
2013-07-01 18:40:00,73.4,68.2,29.84,NE,44,0.0,4.0,84,0.01,,,0.44,70.0,meteohub,2013-07-01 22:40:00,
2013-07-01 18:45:00,73.2,67.8,29.85,NE,44,0.0,3.0,83,0.01,,,0.44,53.0,meteohub,2013-07-01 22:45:00,
2013-07-01 18:50:00,73.2,68.7,29.86,NE,44,0.0,3.0,86,0.01,,,0.44,47.0,meteohub,2013-07-01 22:50:00,
2013-07-01 18:55:00,73.0,68.5,29.85,NE,44,0.0,2.0,86,0.01,,,0.44,56.0,meteohub,2013-07-01 22:55:00,
2013-07-01 19:00:00,72.9,69.1,29.85,South,175,2.0,2.0,88,0.01,,,0.44,47.0,meteohub,2013-07-01 23:00:00,
2013-07-01 19:05:00,72.7,68.9,29.86,South,175,0.0,2.0,88,0.01,,,0.44,26.0,meteohub,2013-07-01 23:05:00,
2013-07-01 19:10:00,72.3,68.5,29.88,ESE,110,1.0,4.0,88,0.01,,,0.44,12.0,meteohub,2013-07-01 23:10:00,
2013-07-01 19:15:00,72.1,67.6,29.88,ENE,61,0.0,5.0,86,0.01,,,0.44,11.0,meteohub,2013-07-01 23:15:00,
2013-07-01 19:20:00,71.8,67.1,29.88,SE,129,1.0,5.0,85,0.01,,,0.44,11.0,meteohub,2013-07-01 23:20:00,
2013-07-01 19:25:00,71.8,67.3,29.88,SE,140,1.0,5.0,86,0.01,,,0.44,14.0,meteohub,2013-07-01 23:25:00,
2013-07-01 19:31:00,71.8,67.3,29.88,SE,146,4.0,6.0,86,0.00,,,0.44,12.0,meteohub,2013-07-01 23:31:00,
2013-07-01 19:36:00,71.2,65.8,29.89,SE,146,4.0,11.0,83,0.00,,,0.44,9.0,meteohub,2013-07-01 23:36:00,
2013-07-01 19:41:00,70.3,64.9,29.90,SSE,160,9.0,14.0,83,0.01,,,0.45,7.0,meteohub,2013-07-01 23:41:00,
2013-07-01 19:46:00,69.4,64.0,29.91,SSE,168,7.0,15.0,83,0.01,,,0.45,5.0,meteohub,2013-07-01 23:46:00,
2013-07-01 19:51:00,68.7,63.7,29.91,SE,144,11.0,15.0,84,0.01,,,0.45,5.0,meteohub,2013-07-01 23:51:00,
2013-07-01 19:56:00,67.8,62.8,29.91,SSE,155,3.0,15.0,84,0.05,,,0.49,0.0,meteohub,2013-07-01 23:56:00,
2013-07-01 20:01:00,66.9,62.6,29.92,SE,144,5.0,12.0,86,0.06,,,0.50,0.0,meteohub,2013-07-02 00:01:00,
2013-07-01 20:06:00,66.4,62.8,29.90,SSE,155,4.0,11.0,88,0.08,,,0.01,0.0,meteohub,2013-07-02 00:06:00,
2013-07-01 20:11:00,66.0,63.0,29.87,ESE,107,6.0,12.0,90,0.10,,,0.02,0.0,meteohub,2013-07-02 00:11:00,
2013-07-01 20:16:00,65.8,62.8,29.88,ESE,121,3.0,12.0,90,0.10,,,0.03,0.0,meteohub,2013-07-02 00:16:00,
2013-07-01 20:21:00,65.8,63.1,29.88,ESE,123,3.0,12.0,91,0.11,,,0.04,5.0,meteohub,2013-07-02 00:21:00,
2013-07-01 20:27:00,65.7,63.0,29.86,SE,143,8.0,11.0,91,0.13,,,0.06,7.0,meteohub,2013-07-02 00:27:00,
2013-07-01 20:32:00,65.5,62.8,29.87,East,94,2.0,13.0,91,0.16,,,0.09,9.0,meteohub,2013-07-02 00:32:00,
2013-07-01 20:37:00,65.3,62.6,29.87,East,86,5.0,13.0,91,0.17,,,0.11,11.0,meteohub,2013-07-02 00:37:00,
2013-07-01 20:39:00,65.3,62.6,29.87,East,87,2.0,13.0,91,0.17,,,0.11,9.0,meteohub,2013-07-02 00:39:00,
2013-07-01 20:44:00,65.1,62.4,29.87,East,80,0.0,11.0,91,0.18,,,0.12,7.0,meteohub,2013-07-02 00:44:00,
2013-07-01 20:49:00,65.1,62.4,29.87,ENE,76,0.0,8.0,91,0.18,,,0.12,5.0,meteohub,2013-07-02 00:49:00,
2013-07-01 20:54:00,64.9,62.6,29.87,NE,42,1.0,7.0,92,0.17,,,0.12,0.0,meteohub,2013-07-02 00:54:00,
2013-07-01 20:59:00,64.9,62.6,29.87,North,10,3.0,5.0,92,0.13,,,0.12,0.0,meteohub,2013-07-02 00:59:00,
2013-07-01 21:04:00,64.9,62.6,29.88,NE,40,2.0,3.0,92,0.12,,,0.12,0.0,meteohub,2013-07-02 01:04:00,
2013-07-01 21:09:00,64.9,62.6,29.88,NE,42,0.0,4.0,92,0.11,,,0.12,0.0,meteohub,2013-07-02 01:09:00,
2013-07-01 21:14:00,64.9,62.6,29.88,North,8,4.0,6.0,92,0.09,,,0.12,0.0,meteohub,2013-07-02 01:14:00,
2013-07-01 21:19:00,64.9,62.6,29.89,NE,52,1.0,6.0,92,0.08,,,0.12,0.0,meteohub,2013-07-02 01:19:00,
2013-07-01 21:24:00,64.8,62.4,29.89,North,7,0.0,6.0,92,0.07,,,0.12,0.0,meteohub,2013-07-02 01:24:00,
2013-07-01 21:29:00,64.8,62.4,29.88,North,7,0.0,5.0,92,0.05,,,0.12,0.0,meteohub,2013-07-02 01:29:00,
2013-07-01 21:35:00,64.6,62.4,29.89,ESE,118,2.0,5.0,93,0.03,,,0.12,0.0,meteohub,2013-07-02 01:35:00,
2013-07-01 21:40:00,64.6,62.4,29.89,ESE,115,0.0,3.0,93,0.00,,,0.12,0.0,meteohub,2013-07-02 01:40:00,
2013-07-01 21:45:00,64.2,61.9,29.89,East,79,0.0,3.0,92,0.00,,,0.12,0.0,meteohub,2013-07-02 01:45:00,
2013-07-01 21:50:00,64.2,61.9,29.89,East,79,0.0,3.0,92,0.00,,,0.12,0.0,meteohub,2013-07-02 01:50:00,
2013-07-01 21:55:00,64.0,61.7,29.89,East,79,0.0,2.0,92,0.00,,,0.12,0.0,meteohub,2013-07-02 01:55:00,
2013-07-01 22:00:00,63.9,61.9,29.89,East,79,0.0,1.0,93,0.00,,,0.12,0.0,meteohub,2013-07-02 02:00:00,
2013-07-01 22:05:00,63.7,61.7,29.89,East,79,0.0,1.0,93,0.00,,,0.12,0.0,meteohub,2013-07-02 02:05:00,
2013-07-01 22:10:00,63.5,61.5,29.89,ENE,77,1.0,1.0,93,0.00,,,0.12,0.0,meteohub,2013-07-02 02:10:00,
2013-07-01 22:15:00,63.3,61.3,29.89,North,9,0.0,2.0,93,0.00,,,0.12,0.0,meteohub,2013-07-02 02:15:00,
2013-07-01 22:21:00,63.1,61.2,29.89,North,9,0.0,2.0,93,0.00,,,0.12,0.0,meteohub,2013-07-02 02:21:00,
2013-07-01 22:26:00,63.0,61.0,29.90,ESE,105,1.0,2.0,93,0.00,,,0.12,0.0,meteohub,2013-07-02 02:26:00,
2013-07-01 22:31:00,63.0,61.0,29.90,ESE,111,0.0,2.0,93,0.00,,,0.12,0.0,meteohub,2013-07-02 02:31:00,
2013-07-01 22:36:00,62.8,60.8,29.91,ESE,111,0.0,2.0,93,0.00,,,0.12,0.0,meteohub,2013-07-02 02:36:00,
2013-07-01 22:41:00,62.4,60.4,29.91,ESE,111,0.0,2.0,93,0.00,,,0.12,0.0,meteohub,2013-07-02 02:41:00,
2013-07-01 22:46:00,62.4,60.4,29.91,ESE,111,1.0,1.0,93,0.00,,,0.12,0.0,meteohub,2013-07-02 02:46:00,
2013-07-01 22:51:00,62.2,60.3,29.91,ESE,111,0.0,1.0,93,0.00,,,0.12,0.0,meteohub,2013-07-02 02:51:00,
2013-07-01 22:56:00,62.2,60.4,29.91,ESE,111,0.0,1.0,94,0.00,,,0.12,0.0,meteohub,2013-07-02 02:56:00,
2013-07-01 23:01:00,62.1,60.3,29.91,ESE,111,0.0,1.0,94,0.00,,,0.12,0.0,meteohub,2013-07-02 03:01:00,
2013-07-01 23:06:00,61.9,60.1,29.91,ESE,111,0.0,0.0,94,0.00,,,0.12,0.0,meteohub,2013-07-02 03:06:00,
2013-07-01 23:12:00,61.9,60.1,29.91,ESE,111,0.0,0.0,94,0.00,,,0.12,0.0,meteohub,2013-07-02 03:12:00,
2013-07-01 23:17:00,61.9,60.1,29.91,ESE,111,1.0,0.0,94,0.00,,,0.12,0.0,meteohub,2013-07-02 03:17:00,
2013-07-01 23:22:00,61.9,60.1,29.92,ESE,111,0.0,1.0,94,0.00,,,0.12,0.0,meteohub,2013-07-02 03:22:00,
2013-07-01 23:27:00,61.7,59.9,29.92,ESE,111,0.0,1.0,94,0.00,,,0.12,0.0,meteohub,2013-07-02 03:27:00,
2013-07-01 23:32:00,61.7,59.9,29.93,ESE,111,0.0,1.0,94,0.00,,,0.12,0.0,meteohub,2013-07-02 03:32:00,
2013-07-01 23:37:00,61.5,59.7,29.93,ESE,111,0.0,1.0,94,0.00,,,0.12,0.0,meteohub,2013-07-02 03:37:00,
2013-07-01 23:42:00,61.5,59.7,29.93,ESE,111,0.0,1.0,94,0.00,,,0.12,0.0,meteohub,2013-07-02 03:42:00,
2013-07-01 23:47:00,61.3,59.5,29.93,ESE,111,0.0,1.0,94,0.00,,,0.12,0.0,meteohub,2013-07-02 03:47:00,
2013-07-01 23:52:00,61.3,59.5,29.93,ESE,111,0.0,1.0,94,0.00,,,0.12,0.0,meteohub,2013-07-02 03:52:00,
2013-07-01 23:57:00,61.3,59.5,29.93,ESE,111,0.0,0.0,94,0.00,,,0.12,0.0,meteohub,2013-07-02 03:57:00,